SEMIR ESMQ-EEPU

Flight info

Callsign SEMIR
Flight time N/A
Altitude 9000
Route MOVIS DCT LUTAL
Aircraft DA42/L-SDFGRY/C

Departure

Time 2026-05-05 16:49
Airport Kalmar Airport (ESMQ)

Arrival

Time N/A
Airport Pärnu Airport (EEPU)
Time Latitude Longitude Altitude Speed Heading
2026-05-05 16:34 56.67865 16.28490 18 ft 0 kts 201°
2026-05-05 16:36 56.67865 16.28491 18 ft 0 kts 201°
2026-05-05 16:38 56.67866 16.28491 18 ft 0 kts 201°
2026-05-05 16:44 56.67873 16.28480 18 ft 9 kts 43°
2026-05-05 16:44 56.67879 16.28499 18 ft 0 kts 86°
2026-05-05 16:44 56.67878 16.28572 18 ft 9 kts 96°
2026-05-05 16:45 56.67873 16.28660 19 ft 6 kts 106°
2026-05-05 16:45 56.67859 16.28740 19 ft 11 kts 101°
2026-05-05 16:45 56.67863 16.28896 19 ft 11 kts 93°
2026-05-05 16:45 56.67860 16.29004 19 ft 0 kts 78°
2026-05-05 16:46 56.67870 16.29061 20 ft 8 kts 54°
2026-05-05 16:47 56.67907 16.29124 20 ft 7 kts 39°
2026-05-05 16:47 56.67925 16.29153 20 ft 0 kts 47°
2026-05-05 16:47 56.67924 16.29153 20 ft 0 kts 47°
2026-05-05 16:47 56.67945 16.29189 20 ft 6 kts 41°
2026-05-05 16:48 56.68024 16.29256 19 ft 16 kts 349°
2026-05-05 16:48 56.68050 16.29234 19 ft 0 kts 332°
2026-05-05 16:49 56.68254 16.29044 20 ft 66 kts 337°
2026-05-05 16:49 56.68761 16.28518 118 ft 92 kts 336°
2026-05-05 16:49 56.69330 16.27886 367 ft 97 kts 333°
2026-05-05 16:49 56.69888 16.27251 762 ft 93 kts 331°
2026-05-05 16:50 56.70439 16.26720 1213 ft 91 kts 326°
2026-05-05 16:50 56.70958 16.26152 1643 ft 87 kts 313°
2026-05-05 16:50 56.71395 16.25423 1919 ft 85 kts 305°
2026-05-05 16:50 56.71928 16.24815 2132 ft 97 kts 337°
2026-05-05 16:51 56.72592 16.24584 2415 ft 98 kts 339°
2026-05-05 16:51 56.73209 16.24291 2803 ft 88 kts 329°
2026-05-05 16:51 56.73776 16.23885 3099 ft 90 kts 336°
2026-05-05 16:51 56.74479 16.24021 3310 ft 104 kts 359°
2026-05-05 16:52 56.75173 16.24128 3506 ft 106 kts 354°
2026-05-05 16:52 56.75920 16.24255 3651 ft 108 kts 355°
2026-05-05 16:52 56.76688 16.24243 3709 ft 114 kts 348°
2026-05-05 16:52 56.77510 16.24282 3801 ft 120 kts 358°
2026-05-05 16:53 56.78296 16.24438 4001 ft 111 kts 354°
2026-05-05 16:53 56.79071 16.24583 4125 ft 112 kts 356°
2026-05-05 16:53 56.79817 16.24723 4387 ft 104 kts 359°
2026-05-05 16:53 56.80548 16.25049 4535 ft 106 kts
2026-05-05 16:54 56.81236 16.25392 4783 ft 100 kts
2026-05-05 16:54 56.81895 16.25727 4953 ft 98 kts
2026-05-05 16:54 56.82554 16.25976 5124 ft 99 kts 359°
2026-05-05 16:54 56.83310 16.26245 5094 ft 109 kts
2026-05-05 16:55 56.83997 16.26643 5185 ft 116 kts 24°
2026-05-05 16:55 56.84367 16.28053 5100 ft 143 kts 88°
2026-05-05 16:55 56.83973 16.29883 4747 ft 166 kts 129°
2026-05-05 16:55 56.83110 16.31244 4542 ft 161 kts 155°
2026-05-05 16:56 56.82073 16.31946 4288 ft 159 kts 170°
2026-05-05 16:56 56.81025 16.32513 4122 ft 155 kts 170°
2026-05-05 16:56 56.79988 16.33048 3844 ft 152 kts 173°
2026-05-05 16:56 56.78970 16.33503 3707 ft 152 kts 172°
2026-05-05 16:57 56.77979 16.34040 3623 ft 151 kts 170°
2026-05-05 16:57 56.76949 16.34556 3367 ft 155 kts 172°
2026-05-05 16:57 56.75877 16.35017 3067 ft 157 kts 175°
2026-05-05 16:57 56.74829 16.35406 2675 ft 149 kts 178°
2026-05-05 16:58 56.73828 16.35735 2212 ft 142 kts 177°